Régionale MD - coupe de France Chantraine (88) - L

Date : 17/03/2018
Distance : 2,200 km

Place Nom Licence Catégorie Club Temps min/km CN à J-60 Points Différence Nouveau CN
1 VAGNER Christine 3651 D65 5702GE 0:25:43 11'41 4488 4311 -177 4459
2 ANNE Brigitte 1672 D65 0111AR 0:28:27 12'55 4022 3897 -125 3985
3 DIEUDONNE Madeleine 1380 D70 7808IF 0:29:34 13'26 3612 3749 +137 3675
4 DEVILLE Nelly 2401 D70 5402GE 0:29:50 13'33 3963 3716 -247 3939
5 EGGLI Margrit 27392 D70 6803GE 0:34:38 15'44 2779 3201 +422 3027
6 CHALOPIN Catherine 3674 D65 2105BF 0:35:14 16'00 3710 3146 -564 3768
7 OUDIN M-Reine 7574 D65 6804GE 0:36:27 16'34 2968 3041 +73 2999
8 FISCHER Christiane 27627 D65 6803GE 0:38:02 17'17 2583 2915 +332 2841
9 MOULIERE M-Bernadette 2888 D75 0207HF 0:39:16 17'50 2785 2823 +38 2833
10 LECOYER Annick 2885 D65 0207HF 0:39:16 17'50 3010 2823 -187 2979
11 DENIS Martine 12377 D70 9404IF 0:42:06 19'08 2462 2633 +171 2450
12 MONTANARI Colette 2533 D70 5703GE 0:42:51 19'28 2867 2587 -280 2937
13 TORZ-DRUON Magali 10081 D65 5906HF 0:45:09 20'31 2732 2455 -277 2796
14 AUDIN Florence 34775 D45 7407AR 0:45:37 20'44 1148 2430 +1282 1657
15 ABISSE Gisele 701 D75 2508BF 0:47:20 21'30 1841 2342 +501 2248
16 JEANPIERRE M-Therese 3302 D75 8809GE 0:51:24 23'21 2457 2157 -300 2424
17 RUAUD Agnes 739 D65 2508BF 0:53:11 24'10 2398 2084 -314 2354
18 GROSJEAN A-Marie 12059 D80 6913AR 0:58:26 26'33 1255 1897 +642 1278
19 LUDEWIG-JAMES Carol 15894 D80 5907HF 1:12:46 33'04 2009 1523 -486 2009
20 BEGUINOT M-Louise 1444 D75 5501GE 1:16:00 34'32 934 1459 +525 1070
RICHARD Nicole 14245 D70 0207HF pm None 3788 0 3849
BRUNEL Marie-Jo 8761 D65 8903BF pm None 2695 0 2695
POGU Paulette 4671 D65 5402GE pm None 2516 0 2513
DODIN Genevieve 4392 D70 8809GE pm None 1994 0 1994